Time;durP1;ratioP1;P1;durP2;ratioP2;P2;SDS_P1;SDS_P2;PMS_P1;PMS_P2;Temp;Humidity;BMP_temperature;BMP_pressure;BME280_temperature;BME280_humidity;BME280_pressure;Samples;Min_cycle;Max_cycle;Signal;HPM_P1;HPM_P2
2023/06/02 00:01:59;;;;;;;3.23;1.30;;;14.80;99.90;;;;;;4885652;29;20190;-70
2023/06/02 00:04:27;;;;;;;4.20;1.40;;;14.70;99.90;;;;;;4893990;29;20236;-72
2023/06/02 00:06:55;;;;;;;4.33;1.30;;;14.70;99.90;;;;;;4895395;29;20197;-72
2023/06/02 00:09:22;;;;;;;3.40;1.60;;;14.80;99.90;;;;;;4900511;29;20248;-72
2023/06/02 00:11:49;;;;;;;1.40;1.23;;;14.70;99.90;;;;;;4890334;29;20291;-71
2023/06/02 00:14:16;;;;;;;1.70;1.50;;;14.80;99.90;;;;;;4895922;29;20209;-71
2023/06/02 00:16:45;;;;;;;2.07;1.40;;;14.40;99.90;;;;;;4878138;29;20716;-72
2023/06/02 00:19:14;;;;;;;1.40;1.30;;;14.60;99.90;;;;;;4868449;29;20291;-72
2023/06/02 00:21:41;;;;;;;3.20;1.20;;;14.70;99.90;;;;;;4881870;29;20281;-71
2023/06/02 00:24:09;;;;;;;1.40;1.27;;;14.70;99.90;;;;;;4895062;29;20232;-72
2023/06/02 00:26:36;;;;;;;2.10;1.47;;;14.80;99.90;;;;;;4878283;29;20304;-72
2023/06/02 00:29:03;;;;;;;2.03;1.53;;;14.80;99.90;;;;;;4879045;29;20640;-71
2023/06/02 00:31:30;;;;;;;4.07;1.73;;;14.80;99.90;;;;;;4896421;29;20727;-71
2023/06/02 00:33:58;;;;;;;3.00;1.50;;;14.80;99.90;;;;;;4888050;29;20201;-71
2023/06/02 00:36:25;;;;;;;2.70;1.30;;;14.90;99.90;;;;;;4900842;29;20316;-72
2023/06/02 00:38:52;;;;;;;2.17;1.37;;;14.90;99.90;;;;;;4876575;29;20205;-71
2023/06/02 00:41:19;;;;;;;6.00;1.43;;;14.80;99.90;;;;;;4903841;29;20201;-72
2023/06/02 00:43:46;;;;;;;2.33;1.40;;;14.70;99.90;;;;;;4889662;29;20205;-70
2023/06/02 00:46:13;;;;;;;1.77;1.50;;;14.40;99.90;;;;;;4895519;29;20192;-71
2023/06/02 00:48:40;;;;;;;2.97;1.70;;;14.30;99.90;;;;;;4899426;29;20211;-71
2023/06/02 00:51:07;;;;;;;5.33;1.83;;;14.60;99.90;;;;;;4870095;29;20201;-71
2023/06/02 00:53:36;;;;;;;2.60;1.50;;;14.70;99.90;;;;;;4887366;29;20211;-71
2023/06/02 00:56:03;;;;;;;1.60;1.47;;;14.60;99.90;;;;;;4883054;29;20227;-71
2023/06/02 00:58:37;;;;;;;1.43;1.33;;;14.50;99.90;;;;;;4883812;29;20264;-71
2023/06/02 01:01:08;;;;;;;2.07;1.30;;;14.40;99.90;;;;;;4879568;29;20674;-72
2023/06/02 01:03:36;;;;;;;1.63;1.20;;;14.00;99.90;;;;;;4892829;29;20233;-72
2023/06/02 01:06:05;;;;;;;1.20;1.13;;;13.70;99.90;;;;;;4890593;29;20261;-73
2023/06/02 01:08:37;;;;;;;1.70;1.10;;;14.00;99.90;;;;;;4888280;29;20251;-73
2023/06/02 01:14:08;;;;;;;2.63;1.60;;;13.90;99.90;;;;;;4721840;23;20283;-71
2023/06/02 01:16:44;;;;;;;1.70;1.07;;;13.80;99.90;;;;;;4905340;29;20276;-64
2023/06/02 01:19:13;;;;;;;3.37;1.27;;;13.80;99.90;;;;;;4907565;29;20200;-70
2023/06/02 01:21:47;;;;;;;1.20;1.00;;;14.10;99.90;;;;;;4889634;29;20287;-63
2023/06/02 01:24:14;;;;;;;1.90;1.10;;;14.30;99.90;;;;;;4910282;29;20203;-63
2023/06/02 01:26:42;;;;;;;2.97;1.23;;;14.50;99.90;;;;;;4894352;29;20650;-63
2023/06/02 01:29:09;;;;;;;2.40;1.00;;;14.50;99.90;;;;;;4894081;29;20295;-65
2023/06/02 01:31:48;;;;;;;2.33;1.33;;;14.50;99.90;;;;;;4893179;29;20222;-64
2023/06/02 01:34:31;;;;;;;3.10;1.10;;;14.50;99.90;;;;;;4883885;29;20208;-63
2023/06/02 01:37:00;;;;;;;6.10;1.10;;;14.50;99.90;;;;;;4903065;29;20933;-64
2023/06/02 01:39:29;;;;;;;1.90;1.40;;;14.30;99.90;;;;;;4882746;29;20548;-62
2023/06/02 01:42:01;;;;;;;1.53;1.30;;;14.30;99.90;;;;;;4890192;29;20199;-63
2023/06/02 01:44:30;;;;;;;3.40;1.23;;;14.10;99.90;;;;;;4884580;29;20554;-63
2023/06/02 01:46:58;;;;;;;3.10;1.63;;;14.10;99.90;;;;;;4872616;29;20255;-63
2023/06/02 01:49:26;;;;;;;1.30;1.20;;;14.10;99.90;;;;;;4883266;29;21790;-63
2023/06/02 01:51:54;;;;;;;2.63;1.13;;;14.30;99.90;;;;;;4880539;29;20197;-63
2023/06/02 01:54:21;;;;;;;1.00;1.00;;;14.20;99.90;;;;;;4888760;29;20205;-61
2023/06/02 01:56:49;;;;;;;2.97;1.07;;;14.20;99.90;;;;;;4881806;29;20222;-61
2023/06/02 01:59:17;;;;;;;1.30;1.00;;;14.00;99.90;;;;;;4871632;29;20249;-63
2023/06/02 02:01:45;;;;;;;1.20;1.10;;;14.00;99.90;;;;;;4887744;29;20208;-61
2023/06/02 02:04:12;;;;;;;6.57;1.80;;;14.00;99.90;;;;;;4902003;29;20192;-62
2023/06/02 02:06:39;;;;;;;1.20;1.10;;;14.20;99.90;;;;;;4893674;29;20200;-61
2023/06/02 02:09:07;;;;;;;1.90;1.13;;;14.10;99.90;;;;;;4912792;29;20200;-62
2023/06/02 02:11:34;;;;;;;2.87;0.90;;;14.10;99.90;;;;;;4907111;29;20754;-63
2023/06/02 02:14:04;;;;;;;1.87;0.90;;;14.20;99.90;;;;;;4874383;29;20244;-61
2023/06/02 02:16:32;;;;;;;1.90;1.17;;;14.20;99.90;;;;;;4890080;29;20299;-63
2023/06/02 02:19:00;;;;;;;1.33;1.00;;;14.30;99.90;;;;;;4875972;29;20204;-62
2023/06/02 02:21:27;;;;;;;3.77;1.40;;;14.20;99.90;;;;;;4888642;29;20537;-65
2023/06/02 02:23:54;;;;;;;4.80;1.20;;;14.00;99.90;;;;;;4889903;29;20571;-62
2023/06/02 02:26:21;;;;;;;1.23;1.00;;;13.80;99.90;;;;;;4864485;29;20792;-63
2023/06/02 02:28:49;;;;;;;2.17;1.47;;;13.70;99.90;;;;;;4855769;29;20217;-62
2023/06/02 02:31:16;;;;;;;1.30;1.10;;;13.80;99.90;;;;;;4860622;29;20208;-62
2023/06/02 02:33:43;;;;;;;1.23;0.90;;;14.10;99.90;;;;;;4864689;29;20209;-62
2023/06/02 02:36:11;;;;;;;4.47;1.57;;;13.90;99.90;;;;;;4891352;29;20209;-62
2023/06/02 02:38:38;;;;;;;4.27;1.37;;;13.50;99.90;;;;;;4887867;29;20244;-61
2023/06/02 02:41:07;;;;;;;2.93;1.07;;;13.40;99.90;;;;;;4864587;29;20659;-61
2023/06/02 02:43:35;;;;;;;1.17;1.07;;;13.60;99.90;;;;;;4859901;29;20690;-61
2023/06/02 02:46:02;;;;;;;2.00;1.80;;;14.00;99.90;;;;;;4874681;29;20740;-61
2023/06/02 02:48:29;;;;;;;1.60;1.50;;;13.90;99.90;;;;;;4885181;29;20276;-61
2023/06/02 02:50:57;;;;;;;2.40;1.00;;;13.90;99.90;;;;;;4884451;29;20250;-61
2023/06/02 02:53:24;;;;;;;5.20;1.60;;;13.40;99.90;;;;;;4875584;29;20204;-60
2023/06/02 02:55:52;;;;;;;4.77;1.37;;;13.20;99.90;;;;;;4863658;29;20262;-61
2023/06/02 02:58:19;;;;;;;1.20;1.07;;;13.40;99.90;;;;;;4881480;29;20221;-61
2023/06/02 03:00:47;;;;;;;1.87;1.20;;;13.20;99.90;;;;;;4868948;29;20212;-61
2023/06/02 03:03:15;;;;;;;2.10;1.10;;;13.20;99.90;;;;;;4875363;29;20651;-61
2023/06/02 03:05:45;;;;;;;0.80;0.80;;;12.80;99.90;;;;;;4889574;29;20189;-60
2023/06/02 03:08:12;;;;;;;5.80;1.30;;;12.50;99.90;;;;;;4874012;29;20621;-62
2023/06/02 03:10:40;;;;;;;1.40;1.20;;;12.40;99.90;;;;;;4862895;29;20686;-62
2023/06/02 03:13:07;;;;;;;1.47;1.10;;;12.60;99.90;;;;;;4855270;29;20244;-63
2023/06/02 03:15:34;;;;;;;4.23;1.60;;;13.00;99.90;;;;;;4868301;29;20209;-63
2023/06/02 03:18:03;;;;;;;3.50;1.30;;;13.00;99.90;;;;;;4867766;29;20273;-64
2023/06/02 03:20:31;;;;;;;1.97;1.27;;;13.00;99.90;;;;;;4887227;29;21018;-63
2023/06/02 03:23:00;;;;;;;1.60;1.37;;;13.00;99.90;;;;;;4873561;29;20280;-63
2023/06/02 03:25:27;;;;;;;2.53;1.43;;;13.10;99.90;;;;;;4861759;29;20300;-61
2023/06/02 03:27:55;;;;;;;2.47;1.63;;;13.20;99.90;;;;;;4871791;29;20327;-63
2023/06/02 03:30:23;;;;;;;2.53;1.30;;;13.00;99.90;;;;;;4870323;29;20228;-62
2023/06/02 03:32:55;;;;;;;4.63;1.60;;;13.00;99.90;;;;;;4881275;29;20221;-61
2023/06/02 03:35:22;;;;;;;2.73;1.03;;;13.30;99.90;;;;;;4887823;29;20205;-62
2023/06/02 03:37:49;;;;;;;3.77;1.47;;;13.60;99.90;;;;;;4857187;29;20228;-62
2023/06/02 03:40:16;;;;;;;4.53;1.33;;;13.60;99.90;;;;;;4854055;29;20205;-62
2023/06/02 03:42:44;;;;;;;4.17;1.23;;;13.60;99.90;;;;;;4867120;29;20200;-61
2023/06/02 03:45:11;;;;;;;6.50;1.70;;;13.50;99.90;;;;;;4884156;29;20701;-61
2023/06/02 03:47:40;;;;;;;4.40;1.87;;;12.90;99.90;;;;;;4844785;29;20201;-61
2023/06/02 03:50:10;;;;;;;1.80;1.13;;;12.90;99.90;;;;;;4861539;29;20197;-61
2023/06/02 03:52:38;;;;;;;2.10;1.33;;;12.90;99.90;;;;;;4861202;29;20230;-60
2023/06/02 03:55:06;;;;;;;10.43;1.47;;;13.10;99.90;;;;;;4869415;29;20272;-61
2023/06/02 03:57:33;;;;;;;4.40;1.53;;;12.60;99.90;;;;;;4861316;29;20716;-60
2023/06/02 04:00:01;;;;;;;6.53;1.60;;;12.70;99.90;;;;;;4880443;29;20189;-60
2023/06/02 04:02:39;;;;;;;5.63;1.40;;;12.80;99.90;;;;;;4883713;29;20663;-61
2023/06/02 04:05:11;;;;;;;0.90;0.90;;;12.80;99.90;;;;;;4868407;29;20754;-61
2023/06/02 04:07:40;;;;;;;1.50;1.33;;;13.00;99.90;;;;;;4886570;29;20228;-61
2023/06/02 04:10:08;;;;;;;2.23;1.17;;;13.20;99.90;;;;;;4870172;29;20213;-63
2023/06/02 04:12:36;;;;;;;2.20;1.30;;;13.20;99.90;;;;;;4865533;29;20255;-63
2023/06/02 04:15:04;;;;;;;3.33;1.40;;;13.00;99.90;;;;;;4869947;29;20197;-63
2023/06/02 04:17:31;;;;;;;1.47;1.07;;;12.60;99.90;;;;;;4871353;29;20219;-63
2023/06/02 04:19:58;;;;;;;2.80;1.53;;;12.50;99.90;;;;;;4865818;29;20206;-66
2023/06/02 04:22:26;;;;;;;1.30;1.20;;;12.80;99.90;;;;;;4868273;29;20209;-68
2023/06/02 04:24:53;;;;;;;2.77;1.53;;;12.90;99.90;;;;;;4870599;29;20208;-62
2023/06/02 04:27:21;;;;;;;2.17;1.37;;;13.00;99.90;;;;;;4873321;29;20792;-62
2023/06/02 04:29:50;;;;;;;2.17;1.73;;;13.20;99.90;;;;;;4880629;29;20209;-62
2023/06/02 04:32:18;;;;;;;2.50;1.40;;;13.00;99.90;;;;;;4864689;29;20231;-62
2023/06/02 04:34:46;;;;;;;1.50;1.23;;;12.70;99.90;;;;;;4860532;29;20248;-64
2023/06/02 04:37:13;;;;;;;7.70;1.30;;;12.70;99.90;;;;;;4846462;29;20234;-63
2023/06/02 04:39:46;;;;;;;1.67;1.37;;;13.20;99.90;;;;;;4849553;29;20193;-63
2023/06/02 04:42:14;;;;;;;2.23;1.23;;;13.30;99.90;;;;;;4870513;29;20228;-63
2023/06/02 04:44:44;;;;;;;2.30;1.40;;;13.40;99.90;;;;;;4851791;29;20727;-63
2023/06/02 04:47:12;;;;;;;5.83;1.27;;;13.70;99.90;;;;;;4865838;29;20197;-64
2023/06/02 04:49:39;;;;;;;2.90;1.50;;;13.50;99.90;;;;;;4871419;29;20201;-64
2023/06/02 04:52:07;;;;;;;3.13;1.37;;;13.70;99.90;;;;;;4873818;29;20220;-64
2023/06/02 04:54:35;;;;;;;3.43;2.10;;;13.70;99.90;;;;;;4866509;29;20285;-64
2023/06/02 04:57:06;;;;;;;1.13;1.03;;;14.00;99.90;;;;;;4891224;29;20232;-63
2023/06/02 04:59:33;;;;;;;1.00;1.00;;;13.80;99.90;;;;;;4879672;29;20313;-64
2023/06/02 05:02:01;;;;;;;0.97;0.90;;;13.90;99.90;;;;;;4868308;29;20529;-64
2023/06/02 05:04:29;;;;;;;2.03;1.50;;;14.20;99.90;;;;;;4876194;29;20269;-62
2023/06/02 05:06:57;;;;;;;5.23;1.70;;;14.00;99.90;;;;;;4877727;29;20196;-64
2023/06/02 05:09:24;;;;;;;3.60;1.23;;;13.30;99.90;;;;;;4866236;29;20245;-62
2023/06/02 05:11:53;;;;;;;2.90;1.50;;;13.30;99.90;;;;;;4873461;29;20221;-63
2023/06/02 05:14:21;;;;;;;1.73;1.40;;;13.50;99.90;;;;;;4869662;29;20209;-62
2023/06/02 05:16:48;;;;;;;4.17;2.30;;;13.30;99.90;;;;;;4894611;29;20907;-61
2023/06/02 05:19:16;;;;;;;3.27;1.47;;;13.00;99.90;;;;;;4876868;29;20225;-61
2023/06/02 05:21:43;;;;;;;10.23;1.77;;;13.00;99.90;;;;;;4885724;29;20200;-60
2023/06/02 05:24:10;;;;;;;2.33;1.37;;;13.30;99.90;;;;;;4888486;29;20225;-61
2023/06/02 05:26:38;;;;;;;3.87;1.70;;;13.70;99.90;;;;;;4869053;29;20912;-60
2023/06/02 05:29:05;;;;;;;2.20;1.60;;;13.90;99.90;;;;;;4876250;29;20205;-63
2023/06/02 05:31:32;;;;;;;2.00;1.27;;;13.60;99.90;;;;;;4864305;29;20239;-65
2023/06/02 05:33:59;;;;;;;1.40;1.03;;;14.00;99.90;;;;;;4871700;29;20220;-66
2023/06/02 05:36:26;;;;;;;3.37;2.00;;;14.30;99.90;;;;;;4867528;29;20209;-66
2023/06/02 05:38:53;;;;;;;6.30;1.60;;;14.70;99.90;;;;;;4888311;29;20213;-63
2023/06/02 05:41:21;;;;;;;1.73;1.57;;;14.70;99.90;;;;;;4852775;29;20341;-62
2023/06/02 05:43:49;;;;;;;2.38;2.05;;;14.80;99.90;;;;;;4871486;29;20201;-64
2023/06/02 05:46:16;;;;;;;3.95;2.45;;;14.90;99.90;;;;;;4871829;29;20211;-61
2023/06/02 05:48:43;;;;;;;3.85;2.25;;;14.70;99.90;;;;;;4887785;29;20204;-61
2023/06/02 05:51:11;;;;;;;2.90;2.10;;;14.90;99.90;;;;;;4872849;29;20686;-61
2023/06/02 05:53:39;;;;;;;3.50;2.03;;;14.80;99.90;;;;;;4884215;29;20650;-59
2023/06/02 05:56:06;;;;;;;4.87;1.90;;;14.90;99.90;;;;;;4871964;29;20209;-65
2023/06/02 05:58:39;;;;;;;6.00;1.77;;;14.60;99.90;;;;;;4881745;29;20218;-64
2023/06/02 06:01:09;;;;;;;7.10;2.37;;;14.20;99.90;;;;;;4870214;29;20202;-62
2023/06/02 06:03:36;;;;;;;5.23;1.73;;;14.10;99.90;;;;;;4863080;29;20827;-63
2023/06/02 06:06:05;;;;;;;1.97;1.77;;;14.20;99.90;;;;;;4873480;29;20229;-63
2023/06/02 06:08:32;;;;;;;2.57;1.93;;;14.10;99.90;;;;;;4867924;29;20202;-66
2023/06/02 06:10:59;;;;;;;6.43;1.87;;;14.20;99.90;;;;;;4875443;29;20253;-62
2023/06/02 06:13:27;;;;;;;3.97;2.00;;;14.30;99.90;;;;;;4874343;29;20237;-67
2023/06/02 06:15:54;;;;;;;4.97;1.80;;;14.70;99.90;;;;;;4874418;29;20299;-63
2023/06/02 06:18:21;;;;;;;3.23;1.70;;;14.90;99.90;;;;;;4891411;29;20315;-64
2023/06/02 06:20:49;;;;;;;4.47;1.93;;;14.80;99.90;;;;;;4873818;29;20236;-66
2023/06/02 06:23:17;;;;;;;2.23;1.33;;;15.00;99.90;;;;;;4864923;29;20208;-65
2023/06/02 06:25:46;;;;;;;2.60;1.63;;;15.10;99.90;;;;;;4880372;29;20193;-61
2023/06/02 06:28:13;;;;;;;3.63;1.60;;;15.10;99.90;;;;;;4865055;29;20237;-63
2023/06/02 06:30:41;;;;;;;2.35;1.45;;;15.20;99.90;;;;;;4871398;29;20261;-62
2023/06/02 06:33:09;;;;;;;3.05;1.90;;;15.30;99.90;;;;;;4853869;29;20300;-61
2023/06/02 06:35:36;;;;;;;3.20;1.27;;;15.30;99.90;;;;;;4889408;29;20197;-63
2023/06/02 06:38:05;;;;;;;1.33;1.20;;;15.20;99.90;;;;;;4869830;29;20356;-61
2023/06/02 06:40:32;;;;;;;6.47;1.47;;;14.20;99.90;;;;;;4869004;29;20749;-61
2023/06/02 06:43:00;;;;;;;1.13;1.07;;;14.30;99.90;;;;;;4859236;29;20208;-61
2023/06/02 06:45:52;;;;;;;1.48;1.38;;;14.20;99.90;;;;;;4865428;29;20274;-61
2023/06/02 06:48:19;;;;;;;5.20;1.50;;;14.80;99.90;;;;;;4873823;29;20209;-61
2023/06/02 06:50:48;;;;;;;1.83;1.23;;;14.60;99.90;;;;;;4892402;29;20213;-61
2023/06/02 06:53:15;;;;;;;5.30;1.30;;;14.50;99.90;;;;;;4889968;29;20286;-61
2023/06/02 06:55:43;;;;;;;4.20;1.27;;;14.50;99.90;;;;;;4868251;29;20295;-61
2023/06/02 06:58:10;;;;;;;3.33;1.40;;;15.00;99.90;;;;;;4877696;29;20272;-61
2023/06/02 07:00:38;;;;;;;10.13;1.60;;;15.20;99.90;;;;;;4869276;29;20205;-61
2023/06/02 07:03:05;;;;;;;3.00;1.40;;;15.40;99.90;;;;;;4884819;29;20711;-62
2023/06/02 07:05:32;;;;;;;4.57;1.42;;;15.80;99.90;;;;;;4879702;29;20211;-62
2023/06/02 07:07:59;;;;;;;1.25;1.15;;;16.40;99.90;;;;;;4886246;29;20568;-61
2023/06/02 07:10:26;;;;;;;8.23;1.70;;;15.10;99.90;;;;;;4880955;29;20208;-63
2023/06/02 07:12:53;;;;;;;5.40;1.50;;;14.60;99.90;;;;;;4860687;29;20334;-62
2023/06/02 07:15:20;;;;;;;6.45;2.08;;;15.00;99.90;;;;;;4882461;29;20206;-62
2023/06/02 07:17:48;;;;;;;1.17;1.00;;;16.40;99.90;;;;;;4869071;29;20766;-62
2023/06/02 07:20:16;;;;;;;4.95;2.30;;;17.10;99.90;;;;;;4886449;29;20206;-62
2023/06/02 07:22:43;;;;;;;2.70;1.50;;;17.40;99.90;;;;;;4888722;29;20205;-61
2023/06/02 07:25:11;;;;;;;2.97;1.80;;;17.20;99.90;;;;;;4873769;29;20208;-62
2023/06/02 07:27:38;;;;;;;1.92;1.42;;;17.10;99.90;;;;;;4864756;29;20211;-62
2023/06/02 07:30:06;;;;;;;4.55;2.40;;;16.90;99.90;;;;;;4874386;29;20686;-61
2023/06/02 07:32:33;;;;;;;2.30;1.33;;;17.20;99.90;;;;;;4887971;29;20216;-62
2023/06/02 07:35:00;;;;;;;7.18;1.77;;;18.00;99.90;;;;;;4866787;29;20206;-62
2023/06/02 07:37:27;;;;;;;2.80;1.67;;;18.80;99.90;;;;;;4888108;29;20204;-61
2023/06/02 07:39:54;;;;;;;3.55;1.80;;;17.70;99.90;;;;;;4876927;29;20194;-61
2023/06/02 07:42:22;;;;;;;6.90;2.38;;;18.20;99.90;;;;;;4871541;29;20205;-62
2023/06/02 07:44:49;;;;;;;5.85;2.65;;;17.50;99.90;;;;;;4889608;29;20262;-66
2023/06/02 07:47:16;;;;;;;4.55;2.65;;;17.10;99.90;;;;;;4870229;29;20205;-60
2023/06/02 07:49:43;;;;;;;2.75;1.60;;;17.50;99.90;;;;;;4891404;29;20212;-61
2023/06/02 07:52:11;;;;;;;6.88;2.78;;;18.00;99.90;;;;;;4890329;29;20193;-62
2023/06/02 07:54:38;;;;;;;3.85;2.28;;;17.60;99.90;;;;;;4850126;29;20587;-63
2023/06/02 07:57:05;;;;;;;2.47;2.00;;;16.90;99.90;;;;;;4884849;29;20284;-62
2023/06/02 07:59:32;;;;;;;2.55;2.35;;;17.10;99.90;;;;;;4885218;29;20220;-63
2023/06/02 08:01:59;;;;;;;4.25;2.88;;;18.10;99.90;;;;;;4876780;29;20213;-62
2023/06/02 08:04:27;;;;;;;2.60;1.85;;;18.50;99.90;;;;;;4871510;29;20740;-62
2023/06/02 08:06:57;;;;;;;5.60;2.58;;;18.60;99.90;;;;;;4866277;29;20396;-62
2023/06/02 08:09:24;;;;;;;4.80;2.20;;;18.80;99.90;;;;;;4865892;29;20558;-62
2023/06/02 08:11:52;;;;;;;5.50;3.00;;;17.70;99.90;;;;;;4887078;29;20284;-62
2023/06/02 08:14:19;;;;;;;4.43;2.15;;;17.40;99.90;;;;;;4890026;29;20679;-62
2023/06/02 08:16:46;;;;;;;1.95;1.73;;;17.10;99.90;;;;;;4889667;29;20685;-62
2023/06/02 08:19:25;;;;;;;6.72;2.40;;;17.60;99.90;;;;;;4865708;29;20218;-62
2023/06/02 08:21:52;;;;;;;5.13;2.03;;;18.10;99.90;;;;;;4869665;29;20751;-61
2023/06/02 08:24:24;;;;;;;4.95;2.88;;;17.70;99.90;;;;;;4883515;29;20197;-62
2023/06/02 08:26:52;;;;;;;3.58;2.58;;;18.90;99.90;;;;;;4852613;29;20822;-62
2023/06/02 08:29:20;;;;;;;6.28;2.80;;;19.40;99.90;;;;;;4878411;29;20268;-62
2023/06/02 08:31:47;;;;;;;4.00;2.78;;;18.90;99.90;;;;;;4862887;29;20209;-62
2023/06/02 08:34:20;;;;;;;6.63;3.22;;;19.20;99.90;;;;;;4876926;29;20671;-63
2023/06/02 08:36:56;;;;;;;6.47;2.38;;;18.40;99.90;;;;;;4864549;29;20213;-62
2023/06/02 08:39:25;;;;;;;3.63;2.03;;;18.30;99.90;;;;;;4855538;29;20260;-62
2023/06/02 08:41:55;;;;;;;5.18;2.17;;;18.70;99.90;;;;;;4879932;29;20208;-62
2023/06/02 08:44:23;;;;;;;3.78;2.22;;;18.20;99.90;;;;;;4880676;29;20205;-62
2023/06/02 08:46:51;;;;;;;3.40;2.00;;;17.80;99.90;;;;;;4873365;29;20224;-62
2023/06/02 08:49:21;;;;;;;1.95;1.73;;;17.80;99.90;;;;;;4888982;29;20205;-62
2023/06/02 08:51:55;;;;;;;2.90;2.05;;;18.40;99.90;;;;;;4881438;29;20298;-62
2023/06/02 08:54:22;;;;;;;3.30;2.08;;;18.60;99.90;;;;;;4869176;29;20214;-62
2023/06/02 08:56:51;;;;;;;4.43;2.00;;;18.10;99.90;;;;;;4869997;29;20206;-62
2023/06/02 08:59:20;;;;;;;3.35;2.45;;;18.50;99.90;;;;;;4878488;29;20228;-62
2023/06/02 09:01:47;;;;;;;2.95;2.17;;;18.10;99.90;;;;;;4869385;29;20209;-62
2023/06/02 09:04:16;;;;;;;3.92;2.13;;;18.20;99.90;;;;;;4884468;29;20197;-62
2023/06/02 09:06:49;;;;;;;10.60;2.70;;;17.90;99.90;;;;;;4871937;29;20293;-62
2023/06/02 09:09:16;;;;;;;8.68;2.88;;;17.10;99.90;;;;;;4878526;29;20205;-62
2023/06/02 09:11:59;;;;;;;4.30;2.60;;;17.50;99.90;;;;;;4878786;29;20301;-62
2023/06/02 09:14:26;;;;;;;6.88;2.20;;;19.30;99.90;;;;;;4862664;29;20208;-62
2023/06/02 09:16:53;;;;;;;9.35;2.45;;;20.30;99.90;;;;;;4880711;29;20232;-64
2023/06/02 09:19:21;;;;;;;6.25;2.72;;;20.70;99.90;;;;;;4860502;29;20372;-62
2023/06/02 09:21:48;;;;;;;5.40;2.50;;;19.90;99.90;;;;;;4862444;29;20233;-62
2023/06/02 09:24:32;;;;;;;23.88;2.97;;;20.10;99.90;;;;;;4878814;29;20193;-62
2023/06/02 09:26:59;;;;;;;5.32;2.60;;;20.10;99.90;;;;;;4875075;29;20192;-63
2023/06/02 09:29:26;;;;;;;10.70;3.40;;;20.20;99.90;;;;;;4868133;29;20260;-64
2023/06/02 09:31:56;;;;;;;7.13;2.58;;;19.80;99.90;;;;;;4875232;29;20257;-63
2023/06/02 09:34:33;;;;;;;10.10;2.92;;;19.20;99.90;;;;;;4883799;29;20735;-62
2023/06/02 09:37:09;;;;;;;10.50;4.35;;;20.10;99.90;;;;;;4858850;29;20670;-62
2023/06/02 09:39:45;;;;;;;8.90;3.53;;;19.80;99.90;;;;;;4865078;29;20559;-62
2023/06/02 09:42:14;;;;;;;11.30;3.70;;;20.30;99.90;;;;;;4879321;29;20204;-62
2023/06/02 09:45:01;;;;;;;5.85;3.80;;;20.50;99.90;;;;;;4878711;29;20205;-65
2023/06/02 09:47:28;;;;;;;6.72;3.28;;;20.20;99.90;;;;;;4879407;29;20244;-63
2023/06/02 09:49:56;;;;;;;57.92;4.97;;;19.80;99.90;;;;;;4878192;29;20219;-63
2023/06/02 09:52:23;;;;;;;9.45;2.30;;;19.70;99.90;;;;;;4874576;29;20606;-62
2023/06/02 09:54:50;;;;;;;5.65;2.03;;;18.60;99.90;;;;;;4866562;29;20221;-62
2023/06/02 09:57:17;;;;;;;2.28;1.77;;;19.10;99.90;;;;;;4870526;29;20201;-62
2023/06/02 09:59:45;;;;;;;2.45;1.90;;;19.20;99.90;;;;;;4865516;29;20216;-62
2023/06/02 10:02:13;;;;;;;2.47;1.65;;;19.00;99.90;;;;;;4881740;29;20682;-62
2023/06/02 10:04:40;;;;;;;2.65;1.80;;;20.00;99.90;;;;;;4882949;29;20198;-61
2023/06/02 10:07:44;;;;;;;6.70;1.98;;;19.40;99.90;;;;;;4876127;29;20273;-63
2023/06/02 10:10:25;;;;;;;3.13;1.83;;;19.90;99.90;;;;;;4878374;29;20212;-61
2023/06/02 10:13:17;;;;;;;2.28;1.67;;;20.30;99.90;;;;;;4849965;29;20248;-60
2023/06/02 10:16:12;;;;;;;6.13;2.33;;;20.90;99.90;;;;;;4879828;29;20233;-61
2023/06/02 10:18:48;;;;;;;1.77;1.58;;;20.60;99.90;;;;;;4878452;29;20228;-61
2023/06/02 10:21:52;;;;;;;4.40;1.75;;;19.20;99.90;;;;;;4861772;29;20600;-59
2023/06/02 10:24:37;;;;;;;2.72;1.77;;;18.40;99.90;;;;;;4866051;29;20755;-62
2023/06/02 10:27:05;;;;;;;2.40;1.77;;;18.50;99.90;;;;;;4881836;29;20213;-62
2023/06/02 10:29:34;;;;;;;9.27;2.20;;;19.00;99.90;;;;;;4880774;29;20201;-59
2023/06/02 10:32:23;;;;;;;4.90;1.73;;;18.80;99.90;;;;;;4856704;29;20205;-66
2023/06/02 10:34:57;;;;;;;3.22;1.77;;;19.60;99.90;;;;;;4880474;29;20205;-60
2023/06/02 10:37:24;;;;;;;3.63;1.90;;;19.70;99.90;;;;;;4862739;29;20232;-61
2023/06/02 10:39:56;;;;;;;4.45;1.58;;;20.10;99.90;;;;;;4875033;29;20222;-60
2023/06/02 10:42:28;;;;;;;4.43;1.55;;;19.80;99.90;;;;;;4878468;29;20272;-63
2023/06/02 10:45:17;;;;;;;3.58;1.80;;;20.10;99.90;;;;;;4859769;29;20686;-61
2023/06/02 10:47:46;;;;;;;2.45;1.70;;;20.30;99.90;;;;;;4870099;29;20280;-60
2023/06/02 10:50:14;;;;;;;32.70;2.22;;;21.50;99.90;;;;;;4874335;29;20239;-62
2023/06/02 10:52:59;;;;;;;5.05;2.30;;;21.10;99.90;;;;;;4875174;29;20202;-64
2023/06/02 10:55:30;;;;;;;1.70;1.60;;;21.10;99.90;;;;;;4882951;29;20387;-60
2023/06/02 10:58:11;;;;;;;7.05;1.77;;;19.90;99.90;;;;;;4879909;29;20757;-59
2023/06/02 11:00:45;;;;;;;4.55;2.00;;;19.40;99.90;;;;;;4876054;29;20272;-59
2023/06/02 11:03:15;;;;;;;2.90;1.88;;;19.30;99.90;;;;;;4877470;29;20280;-60
2023/06/02 11:05:44;;;;;;;3.40;1.77;;;19.30;99.90;;;;;;4876013;29;20189;-59
2023/06/02 11:08:11;;;;;;;6.80;2.50;;;19.40;99.90;;;;;;4878746;29;20212;-60
2023/06/02 11:10:48;;;;;;;1.48;1.20;;;20.10;99.90;;;;;;4874233;29;20210;-61
2023/06/02 11:13:19;;;;;;;1.58;1.48;;;20.40;99.90;;;;;;4864558;29;20280;-61
2023/06/02 11:15:58;;;;;;;14.13;1.27;;;21.30;99.90;;;;;;4879652;29;20197;-62
2023/06/02 11:18:27;;;;;;;4.18;1.80;;;21.20;99.90;;;;;;4866857;29;20826;-61
2023/06/02 11:21:01;;;;;;;3.67;1.52;;;20.60;99.90;;;;;;4876734;29;20201;-61
2023/06/02 11:23:28;;;;;;;33.80;2.72;;;20.80;99.90;;;;;;4873095;29;20201;-64
2023/06/02 11:26:08;;;;;;;3.75;1.95;;;22.60;99.90;;;;;;4877334;29;20284;-61
2023/06/02 11:28:35;;;;;;;6.22;1.98;;;22.20;99.90;;;;;;4873557;29;20220;-62
2023/06/02 11:31:19;;;;;;;3.72;2.30;;;21.10;99.90;;;;;;4876724;29;20193;-61
2023/06/02 11:33:49;;;;;;;9.88;2.35;;;19.80;99.90;;;;;;4870142;29;20218;-61
2023/06/02 11:36:24;;;;;;;3.25;1.75;;;20.80;99.90;;;;;;4877816;29;20571;-62
2023/06/02 11:38:51;;;;;;;6.30;1.77;;;21.70;99.90;;;;;;4874530;29;20221;-62
2023/06/02 11:41:21;;;;;;;5.88;1.98;;;22.50;99.90;;;;;;4875297;29;21599;-59
2023/06/02 11:43:50;;;;;;;4.32;1.85;;;21.90;99.90;;;;;;4863740;29;20292;-60
2023/06/02 11:46:18;;;;;;;4.72;2.20;;;22.70;99.90;;;;;;4865313;29;20277;-61
2023/06/02 11:48:46;;;;;;;3.38;1.95;;;23.90;99.90;;;;;;4876796;29;20205;-60
2023/06/02 11:51:17;;;;;;;6.55;1.95;;;24.20;99.90;;;;;;4873163;29;20205;-60
2023/06/02 11:53:57;;;;;;;2.53;1.50;;;24.20;99.90;;;;;;4881513;29;20310;-61
2023/06/02 11:56:25;;;;;;;4.00;1.77;;;23.60;99.90;;;;;;4858668;29;20201;-61
2023/06/02 11:58:52;;;;;;;4.57;2.42;;;22.60;99.90;;;;;;4873783;29;20222;-63
2023/06/02 12:01:21;;;;;;;5.20;2.88;;;22.50;99.90;;;;;;4875392;29;20193;-61
2023/06/02 12:04:05;;;;;;;4.60;2.22;;;22.50;99.90;;;;;;4880202;29;20284;-61
2023/06/02 12:06:34;;;;;;;5.80;2.65;;;22.20;99.90;;;;;;4876526;29;20205;-60
2023/06/02 12:09:11;;;;;;;6.47;2.72;;;21.90;99.90;;;;;;4879926;29;20587;-60
2023/06/02 12:11:38;;;;;;;6.40;2.92;;;20.90;99.90;;;;;;4880701;29;20656;-60
2023/06/02 12:14:07;;;;;;;5.40;2.70;;;20.50;99.90;;;;;;4881947;29;20322;-60
2023/06/02 12:16:35;;;;;;;8.73;3.20;;;20.70;99.90;;;;;;4864444;29;20762;-61
2023/06/02 12:19:21;;;;;;;8.00;3.35;;;21.30;99.90;;;;;;4878268;29;20223;-62
2023/06/02 12:21:53;;;;;;;6.53;2.90;;;21.10;99.90;;;;;;4877469;29;20289;-62
2023/06/02 12:24:38;;;;;;;11.52;2.70;;;20.40;99.90;;;;;;4885372;29;20675;-62
2023/06/02 12:27:08;;;;;;;7.82;3.00;;;21.40;99.90;;;;;;4881270;29;20212;-62
2023/06/02 12:29:36;;;;;;;5.22;2.72;;;21.10;99.90;;;;;;4879661;29;20959;-62
2023/06/02 12:32:06;;;;;;;8.23;2.70;;;20.00;99.90;;;;;;4879274;29;20527;-62
2023/06/02 12:34:33;;;;;;;7.47;2.90;;;20.10;99.90;;;;;;4879176;29;20211;-62
2023/06/02 12:37:01;;;;;;;12.20;3.38;;;20.50;99.90;;;;;;4879836;29;20289;-62
2023/06/02 12:39:28;;;;;;;5.93;2.33;;;20.80;99.90;;;;;;4862760;29;20221;-62
2023/06/02 12:41:56;;;;;;;5.97;2.58;;;20.80;99.90;;;;;;4881073;29;20583;-61
2023/06/02 12:44:26;;;;;;;5.97;2.95;;;21.40;99.90;;;;;;4879933;29;20186;-62
2023/06/02 12:46:53;;;;;;;4.78;2.78;;;20.30;99.90;;;;;;4876307;29;20539;-61
2023/06/02 12:49:20;;;;;;;9.00;2.70;;;19.50;99.90;;;;;;4872144;29;20698;-62
2023/06/02 12:51:47;;;;;;;17.05;2.60;;;19.10;99.90;;;;;;4878489;29;20209;-62
2023/06/02 12:54:14;;;;;;;3.92;1.75;;;19.50;99.90;;;;;;4877918;29;20541;-62
2023/06/02 12:56:42;;;;;;;5.70;1.73;;;20.30;99.90;;;;;;4864718;29;20288;-62
2023/06/02 12:59:12;;;;;;;1.98;1.63;;;20.40;99.90;;;;;;4883971;29;20224;-62
2023/06/02 13:01:41;;;;;;;3.75;1.80;;;21.10;99.90;;;;;;4866551;29;20233;-63